Time;durP1;ratioP1;P1;durP2;ratioP2;P2;SDS_P1;SDS_P2;PMS_P1;PMS_P2;Temp;Humidity;BMP_temperature;BMP_pressure;BME280_temperature;BME280_humidity;BME280_pressure;Samples;Min_cycle;Max_cycle;Signal;HPM_P1;HPM_P2
2023/10/20 00:00:59;;;;;;;5.20;4.80;;;18.30;81.70;;;;;;4907626;29;20850;-48
2023/10/20 00:03:25;;;;;;;5.17;4.67;;;18.40;81.20;;;;;;4905700;29;20201;-50
2023/10/20 00:05:50;;;;;;;7.07;4.30;;;18.30;81.10;;;;;;4917501;29;20540;-49
2023/10/20 00:08:16;;;;;;;4.73;4.33;;;18.20;81.60;;;;;;4916596;29;20589;-49
2023/10/20 00:10:41;;;;;;;4.97;4.33;;;18.10;82.40;;;;;;4907294;29;20193;-50
2023/10/20 00:13:07;;;;;;;4.93;4.33;;;18.20;81.80;;;;;;4906113;29;20592;-48
2023/10/20 00:15:34;;;;;;;4.90;4.40;;;18.40;80.40;;;;;;4911228;29;20672;-47
2023/10/20 00:18:00;;;;;;;4.30;4.00;;;18.30;80.80;;;;;;4912737;29;20190;-49
2023/10/20 00:20:26;;;;;;;5.97;4.07;;;18.30;80.30;;;;;;4907701;29;21689;-50
2023/10/20 00:22:51;;;;;;;5.57;5.07;;;18.00;82.10;;;;;;4904354;29;20513;-50
2023/10/20 00:25:17;;;;;;;5.03;4.63;;;17.80;83.40;;;;;;4920729;29;20181;-50
2023/10/20 00:27:42;;;;;;;5.90;4.30;;;17.70;84.20;;;;;;4931390;29;20188;-51
2023/10/20 00:30:09;;;;;;;6.23;4.93;;;17.90;84.70;;;;;;4915738;29;20177;-51
2023/10/20 00:32:35;;;;;;;6.03;4.70;;;17.90;82.70;;;;;;4905626;29;20665;-46
2023/10/20 00:35:05;;;;;;;5.90;5.40;;;18.00;82.20;;;;;;4907511;29;21235;-53
2023/10/20 00:37:31;;;;;;;4.63;4.23;;;18.30;80.70;;;;;;4909471;29;20436;-51
2023/10/20 00:39:57;;;;;;;4.33;3.93;;;18.40;80.20;;;;;;4912556;29;20519;-48
2023/10/20 00:42:22;;;;;;;4.80;4.40;;;18.50;79.40;;;;;;4915553;29;21249;-50
2023/10/20 00:44:48;;;;;;;5.77;4.83;;;18.70;78.10;;;;;;4914045;29;20508;-53
2023/10/20 00:47:14;;;;;;;4.03;3.73;;;18.90;77.00;;;;;;4923204;29;20189;-53
2023/10/20 00:49:40;;;;;;;6.20;4.27;;;19.00;75.80;;;;;;4917261;29;20264;-48
2023/10/20 00:52:07;;;;;;;4.43;4.03;;;18.90;75.40;;;;;;4904665;29;20910;-49
2023/10/20 00:54:33;;;;;;;4.43;3.60;;;19.10;75.30;;;;;;4912311;29;20182;-54
2023/10/20 00:56:59;;;;;;;4.50;4.00;;;19.10;73.90;;;;;;4911395;29;20496;-48
2023/10/20 00:59:24;;;;;;;4.60;4.20;;;19.20;74.20;;;;;;4911945;29;21048;-48
2023/10/20 01:01:50;;;;;;;4.40;4.00;;;19.10;74.40;;;;;;4909821;29;20197;-53
2023/10/20 01:04:15;;;;;;;4.10;3.80;;;19.00;74.60;;;;;;4913139;29;20181;-52
2023/10/20 01:06:43;;;;;;;3.83;3.50;;;18.90;75.50;;;;;;4914613;29;20192;-50
2023/10/20 01:09:10;;;;;;;6.60;5.50;;;18.80;75.40;;;;;;4911529;29;20239;-52
2023/10/20 01:11:36;;;;;;;6.20;3.30;;;18.70;75.10;;;;;;4910784;29;20464;-49
2023/10/20 01:14:02;;;;;;;4.00;3.60;;;18.70;76.00;;;;;;4911243;29;20459;-53
2023/10/20 01:16:28;;;;;;;3.70;2.67;;;18.70;75.50;;;;;;4905838;29;20465;-51
2023/10/20 01:18:53;;;;;;;4.00;3.53;;;18.50;76.30;;;;;;4910680;29;20272;-50
2023/10/20 01:21:19;;;;;;;3.23;2.93;;;18.50;76.90;;;;;;4908049;29;20227;-53
2023/10/20 01:23:45;;;;;;;3.90;3.27;;;18.80;76.50;;;;;;4911906;29;20755;-48
2023/10/20 01:26:10;;;;;;;3.40;3.10;;;19.00;74.30;;;;;;4906685;29;20793;-49
2023/10/20 01:28:36;;;;;;;6.27;3.50;;;19.00;75.30;;;;;;4913071;29;20218;-52
2023/10/20 01:31:01;;;;;;;4.17;3.53;;;19.10;74.10;;;;;;4907856;29;20224;-53
2023/10/20 01:33:27;;;;;;;4.10;3.20;;;19.20;73.70;;;;;;4907585;29;20821;-52
2023/10/20 01:35:52;;;;;;;3.90;3.57;;;19.30;73.30;;;;;;4907484;29;20667;-49
2023/10/20 01:38:18;;;;;;;3.07;2.70;;;19.40;72.30;;;;;;4904853;29;20217;-49
2023/10/20 01:40:46;;;;;;;3.63;3.33;;;19.50;72.10;;;;;;4904494;29;21069;-55
2023/10/20 01:43:12;;;;;;;3.97;2.70;;;19.60;71.90;;;;;;4905161;29;20201;-49
2023/10/20 01:45:37;;;;;;;3.97;3.67;;;19.70;70.80;;;;;;4904802;29;20438;-49
2023/10/20 01:48:03;;;;;;;3.53;3.23;;;19.70;70.30;;;;;;4905554;29;20213;-52
2023/10/20 01:50:28;;;;;;;5.47;3.03;;;19.80;70.30;;;;;;4906179;29;20194;-51
2023/10/20 01:52:54;;;;;;;3.50;2.60;;;20.00;69.60;;;;;;4905077;29;20284;-50
2023/10/20 01:55:19;;;;;;;4.60;3.50;;;20.00;69.20;;;;;;4908014;29;20190;-54
2023/10/20 01:57:45;;;;;;;3.40;3.10;;;20.10;68.80;;;;;;4906394;29;20190;-52
2023/10/20 02:00:13;;;;;;;3.03;2.83;;;20.10;68.70;;;;;;4906661;29;20190;-52
2023/10/20 02:02:40;;;;;;;3.50;3.27;;;20.20;68.40;;;;;;4908105;29;20194;-55
2023/10/20 02:05:08;;;;;;;4.33;3.93;;;20.10;67.70;;;;;;4907312;29;20493;-51
2023/10/20 02:07:34;;;;;;;4.10;3.40;;;20.00;68.60;;;;;;4902828;29;20458;-55
2023/10/20 02:09:59;;;;;;;7.57;3.97;;;19.90;69.00;;;;;;4904803;29;20893;-52
2023/10/20 02:12:25;;;;;;;3.93;3.10;;;19.90;69.40;;;;;;4909587;29;20489;-54
2023/10/20 02:14:51;;;;;;;3.43;2.57;;;19.80;68.90;;;;;;4909701;29;20193;-54
2023/10/20 02:17:16;;;;;;;4.63;2.97;;;19.50;69.90;;;;;;4903307;29;20189;-54
2023/10/20 02:19:42;;;;;;;3.10;2.90;;;19.50;70.70;;;;;;4915506;29;20248;-53
2023/10/20 02:22:07;;;;;;;3.10;2.80;;;19.70;70.20;;;;;;4910723;29;20635;-52
2023/10/20 02:24:33;;;;;;;3.37;3.10;;;19.80;69.80;;;;;;4914569;29;20190;-55
2023/10/20 02:26:58;;;;;;;4.07;2.80;;;19.90;69.30;;;;;;4902318;29;20272;-55
2023/10/20 02:29:24;;;;;;;3.20;2.90;;;19.80;69.40;;;;;;4905987;29;20237;-51
2023/10/20 02:31:50;;;;;;;3.20;2.70;;;19.90;69.20;;;;;;4902176;29;20186;-53
2023/10/20 02:34:16;;;;;;;3.13;2.83;;;19.80;69.50;;;;;;4906828;29;20196;-56
2023/10/20 02:36:42;;;;;;;6.17;3.37;;;19.70;69.60;;;;;;4907149;29;20653;-50
2023/10/20 02:39:07;;;;;;;3.87;2.97;;;19.50;70.80;;;;;;4910917;29;20496;-51
2023/10/20 02:41:33;;;;;;;3.10;2.90;;;19.30;71.30;;;;;;4907980;29;20434;-48
2023/10/20 02:43:59;;;;;;;4.17;3.70;;;19.10;72.10;;;;;;4910833;29;20177;-47
2023/10/20 02:46:24;;;;;;;3.00;2.70;;;18.90;72.80;;;;;;4910011;29;20197;-48
2023/10/20 02:48:50;;;;;;;3.80;3.30;;;18.90;73.90;;;;;;4907363;29;20206;-49
2023/10/20 02:51:17;;;;;;;5.00;3.10;;;18.80;74.40;;;;;;4907495;29;20981;-50
2023/10/20 02:53:42;;;;;;;4.50;2.90;;;18.70;74.10;;;;;;4909438;29;20193;-47
2023/10/20 02:56:19;;;;;;;3.23;3.03;;;18.60;75.20;;;;;;4904428;29;20513;-48
2023/10/20 02:58:45;;;;;;;2.93;2.73;;;18.70;74.70;;;;;;4911426;29;20220;-48
2023/10/20 03:01:16;;;;;;;4.27;3.27;;;18.60;75.40;;;;;;4907050;29;20516;-51
2023/10/20 03:03:42;;;;;;;3.27;3.07;;;18.80;74.50;;;;;;4911141;29;20450;-48
2023/10/20 03:06:08;;;;;;;4.20;3.10;;;18.70;74.30;;;;;;4914041;29;20476;-49
2023/10/20 03:08:36;;;;;;;3.40;3.13;;;18.60;75.20;;;;;;4910481;29;20540;-52
2023/10/20 03:11:02;;;;;;;4.80;3.33;;;18.60;75.60;;;;;;4909578;29;20257;-47
2023/10/20 03:13:28;;;;;;;3.47;3.17;;;18.60;75.90;;;;;;4908862;29;20477;-54
2023/10/20 03:15:53;;;;;;;4.80;3.23;;;18.60;76.20;;;;;;4908556;29;20466;-48
2023/10/20 03:18:20;;;;;;;3.03;2.70;;;18.60;76.60;;;;;;4911864;29;20235;-50
2023/10/20 03:20:48;;;;;;;3.27;3.07;;;18.80;76.10;;;;;;4910866;29;20268;-50
2023/10/20 03:23:15;;;;;;;3.40;2.87;;;19.00;75.10;;;;;;4907891;29;20445;-48
2023/10/20 03:25:41;;;;;;;3.27;2.80;;;19.10;74.50;;;;;;4905960;29;20451;-51
2023/10/20 03:28:07;;;;;;;2.60;2.40;;;19.10;74.20;;;;;;4911611;29;20540;-51
2023/10/20 03:30:40;;;;;;;3.63;2.90;;;19.00;75.50;;;;;;4907666;29;21119;-49
2023/10/20 03:33:13;;;;;;;3.27;3.00;;;19.10;74.70;;;;;;4912034;29;20444;-49
2023/10/20 03:35:39;;;;;;;4.10;2.90;;;19.30;73.90;;;;;;4908752;29;20441;-49
2023/10/20 03:38:09;;;;;;;4.73;3.40;;;19.50;73.50;;;;;;4909283;29;20460;-49
2023/10/20 03:40:38;;;;;;;4.80;3.20;;;19.50;73.20;;;;;;4907654;29;20449;-51
2023/10/20 03:43:04;;;;;;;5.63;3.50;;;19.40;73.30;;;;;;4910556;29;20445;-53
2023/10/20 03:45:39;;;;;;;4.67;3.50;;;19.40;73.50;;;;;;4908186;29;20476;-51
2023/10/20 03:48:06;;;;;;;5.47;3.13;;;19.10;75.00;;;;;;4922183;29;20460;-50
2023/10/20 03:50:35;;;;;;;3.40;3.10;;;19.00;75.80;;;;;;4908851;29;20788;-51
2023/10/20 03:53:01;;;;;;;3.17;2.87;;;19.00;75.80;;;;;;4906830;29;20448;-49
2023/10/20 03:55:26;;;;;;;3.47;3.17;;;18.90;76.50;;;;;;4905864;29;20450;-51
2023/10/20 03:57:52;;;;;;;4.00;3.30;;;18.80;77.70;;;;;;4917169;29;20207;-50
2023/10/20 04:00:18;;;;;;;3.37;3.07;;;18.80;77.30;;;;;;4905255;29;20283;-50
2023/10/20 04:02:46;;;;;;;3.93;3.53;;;19.00;76.40;;;;;;4910947;29;20922;-49
2023/10/20 04:05:13;;;;;;;3.83;3.53;;;19.10;76.00;;;;;;4912051;29;20194;-46
2023/10/20 04:07:38;;;;;;;4.23;2.87;;;19.20;75.80;;;;;;4910194;29;20800;-50
2023/10/20 04:10:06;;;;;;;3.63;3.20;;;19.10;75.50;;;;;;4912367;29;20457;-48
2023/10/20 04:12:31;;;;;;;5.33;3.60;;;19.10;75.90;;;;;;4911273;29;20240;-52
2023/10/20 04:14:57;;;;;;;3.20;2.90;;;19.20;75.60;;;;;;4909137;29;20481;-53
2023/10/20 04:17:23;;;;;;;3.63;3.33;;;19.10;75.50;;;;;;4911035;29;20193;-50
2023/10/20 04:19:49;;;;;;;3.70;3.20;;;19.10;75.40;;;;;;4907018;29;20225;-51
2023/10/20 04:22:16;;;;;;;8.70;3.67;;;19.30;75.00;;;;;;4907362;29;20185;-55
2023/10/20 04:24:42;;;;;;;6.90;3.43;;;19.40;74.80;;;;;;4906741;29;21213;-50
2023/10/20 04:27:21;;;;;;;4.33;3.40;;;19.50;73.70;;;;;;4906401;29;20453;-48
2023/10/20 04:43:41;;;;;;;4.70;4.10;;;19.40;73.70;;;;;;4911513;29;20441;-51
2023/10/20 04:46:58;;;;;;;5.10;3.93;;;19.50;73.20;;;;;;4910176;29;20536;-47
2023/10/20 04:49:28;;;;;;;5.30;3.70;;;19.60;72.80;;;;;;4912358;29;20466;-48
2023/10/20 04:54:35;;;;;;;4.20;3.80;;;19.50;73.20;;;;;;4912419;29;21020;-50
2023/10/20 04:57:29;;;;;;;5.87;3.70;;;19.20;73.80;;;;;;4908750;29;20460;-50
2023/10/20 05:08:17;;;;;;;4.43;4.03;;;19.00;76.20;;;;;;4911898;29;20479;-54
2023/10/20 05:10:47;;;;;;;4.43;4.03;;;19.10;75.50;;;;;;4904577;29;20445;-50
2023/10/20 05:13:12;;;;;;;4.43;4.03;;;19.20;74.60;;;;;;4907876;29;20480;-53
2023/10/20 05:15:41;;;;;;;4.40;3.93;;;19.30;74.00;;;;;;4909712;29;20502;-55
2023/10/20 05:18:12;;;;;;;4.00;3.70;;;19.40;73.50;;;;;;4911133;29;20217;-51
2023/10/20 05:20:40;;;;;;;5.00;4.50;;;19.40;73.30;;;;;;4907165;29;20436;-52
2023/10/20 05:23:06;;;;;;;4.43;4.03;;;19.20;73.40;;;;;;4907387;29;20992;-48
2023/10/20 05:25:32;;;;;;;5.60;4.20;;;19.20;73.80;;;;;;4908974;29;20445;-51
2023/10/20 05:27:59;;;;;;;5.63;4.67;;;19.10;74.00;;;;;;4908285;29;20493;-55
2023/10/20 05:30:25;;;;;;;5.73;4.60;;;19.00;74.60;;;;;;4904921;29;20540;-55
2023/10/20 05:32:51;;;;;;;5.20;4.63;;;18.90;74.50;;;;;;4907577;29;20539;-55
2023/10/20 05:35:17;;;;;;;7.90;5.50;;;18.80;74.60;;;;;;4903021;29;20559;-55
2023/10/20 05:37:43;;;;;;;6.63;5.33;;;18.50;75.70;;;;;;4908342;29;20445;-51
2023/10/20 05:40:08;;;;;;;6.23;5.63;;;18.10;76.70;;;;;;4906303;29;20312;-50
2023/10/20 05:42:34;;;;;;;7.33;6.50;;;17.60;79.60;;;;;;4905120;29;20281;-52
2023/10/20 05:45:17;;;;;;;6.63;5.73;;;17.20;81.50;;;;;;4907486;29;20268;-53
2023/10/20 05:47:43;;;;;;;7.87;7.07;;;17.00;82.10;;;;;;4907506;29;20209;-52
2023/10/20 05:50:09;;;;;;;9.90;8.07;;;17.10;83.50;;;;;;4906228;29;20521;-52
2023/10/20 05:52:35;;;;;;;8.00;7.20;;;17.00;83.60;;;;;;4905697;29;20863;-50
2023/10/20 05:55:03;;;;;;;12.00;7.37;;;17.00;83.20;;;;;;4906170;29;20988;-53
2023/10/20 05:57:29;;;;;;;8.90;6.80;;;17.00;83.20;;;;;;4903426;29;20450;-56
2023/10/20 05:59:54;;;;;;;7.70;7.00;;;17.20;82.40;;;;;;4908873;29;20531;-51
2023/10/20 06:02:20;;;;;;;9.23;7.83;;;17.30;81.90;;;;;;4906808;29;20531;-55
2023/10/20 06:04:46;;;;;;;9.70;7.97;;;17.10;81.60;;;;;;4909123;29;20196;-49
2023/10/20 06:07:11;;;;;;;9.03;8.23;;;17.20;81.80;;;;;;4909144;29;20328;-49
2023/10/20 06:09:37;;;;;;;12.30;7.67;;;17.30;80.20;;;;;;4922256;29;20284;-52
2023/10/20 06:12:07;;;;;;;9.90;8.70;;;17.10;81.10;;;;;;4911706;29;20276;-50
2023/10/20 06:14:32;;;;;;;8.27;7.50;;;17.10;81.80;;;;;;4910127;29;20189;-47
2023/10/20 06:16:58;;;;;;;10.37;7.97;;;17.30;77.70;;;;;;4917385;29;20456;-49
2023/10/20 06:19:24;;;;;;;18.13;9.80;;;17.00;81.30;;;;;;4907508;29;20321;-49
2023/10/20 06:21:50;;;;;;;10.43;9.37;;;17.00;80.50;;;;;;4914298;29;20194;-49
2023/10/20 06:24:16;;;;;;;27.07;13.10;;;17.20;80.50;;;;;;4906425;29;20437;-49
2023/10/20 06:26:42;;;;;;;28.87;11.70;;;17.20;79.50;;;;;;4912356;29;20495;-48
2023/10/20 06:30:14;;;;;;;17.50;11.13;;;17.40;78.20;;;;;;4911801;29;20720;-50
2023/10/20 06:32:24;;;;;;;14.17;10.77;;;17.40;77.60;;;;;;4909345;29;20744;-51
2023/10/20 06:34:51;;;;;;;15.03;9.80;;;17.30;78.50;;;;;;4910553;29;20460;-48
2023/10/20 06:37:31;;;;;;;25.97;11.40;;;17.10;78.80;;;;;;4916610;29;20451;-49
2023/10/20 06:39:57;;;;;;;20.67;12.77;;;17.10;79.60;;;;;;4909413;29;20487;-51
2023/10/20 06:42:24;;;;;;;27.03;12.93;;;17.20;79.40;;;;;;4909034;29;20434;-47
2023/10/20 06:44:50;;;;;;;12.83;11.03;;;17.40;77.90;;;;;;4903680;29;20212;-52
2023/10/20 06:47:15;;;;;;;13.30;10.93;;;17.00;78.40;;;;;;4907326;29;20503;-51
2023/10/20 06:49:42;;;;;;;15.27;11.00;;;17.00;79.40;;;;;;4905214;29;20465;-48
2023/10/20 06:52:08;;;;;;;12.13;10.93;;;16.60;80.30;;;;;;4914190;29;20442;-50
2023/10/20 06:54:33;;;;;;;12.90;11.60;;;16.50;82.00;;;;;;4903118;29;20285;-46
2023/10/20 06:56:59;;;;;;;22.87;12.80;;;16.40;81.80;;;;;;4906279;29;20200;-50
2023/10/20 06:59:24;;;;;;;27.53;13.70;;;16.30;83.10;;;;;;4910557;29;20243;-50
2023/10/20 07:01:51;;;;;;;35.37;13.70;;;16.20;84.00;;;;;;4914296;29;20296;-47
2023/10/20 07:04:16;;;;;;;37.73;13.70;;;16.40;83.90;;;;;;4907070;29;20707;-48
2023/10/20 07:06:42;;;;;;;26.17;12.70;;;16.50;82.70;;;;;;4908712;29;20464;-48
2023/10/20 07:09:11;;;;;;;43.10;13.43;;;16.70;81.40;;;;;;4909031;29;20241;-46
2023/10/20 07:11:42;;;;;;;49.13;14.40;;;16.90;80.70;;;;;;4895760;29;20194;-49
2023/10/20 07:14:08;;;;;;;16.50;12.73;;;17.00;79.00;;;;;;4900130;29;20496;-46
2023/10/20 07:16:34;;;;;;;13.03;11.60;;;17.00;79.50;;;;;;4901789;29;20873;-53
2023/10/20 07:19:01;;;;;;;13.13;11.70;;;17.40;77.90;;;;;;4910060;29;20252;-51
2023/10/20 07:21:27;;;;;;;18.00;11.07;;;17.50;76.70;;;;;;4912357;29;20464;-47
2023/10/20 07:23:52;;;;;;;16.67;10.93;;;17.70;76.40;;;;;;4910468;29;20441;-50
2023/10/20 07:26:18;;;;;;;26.60;13.13;;;17.70;76.00;;;;;;4905704;29;20611;-52
2023/10/20 07:28:44;;;;;;;35.27;14.10;;;17.60;75.80;;;;;;4905630;29;20214;-53
2023/10/20 07:31:11;;;;;;;41.97;15.57;;;17.40;76.80;;;;;;4917148;29;20192;-49
2023/10/20 07:33:37;;;;;;;41.03;16.40;;;17.50;76.90;;;;;;4904353;29;20536;-53
2023/10/20 07:36:05;;;;;;;24.73;13.60;;;17.70;76.50;;;;;;4919019;29;20568;-50
2023/10/20 07:38:30;;;;;;;12.97;11.40;;;17.70;75.50;;;;;;4915417;29;20304;-51
2023/10/20 07:40:56;;;;;;;14.83;11.53;;;17.50;76.70;;;;;;4911037;29;20588;-50
2023/10/20 07:43:21;;;;;;;17.80;13.37;;;17.50;76.40;;;;;;4918824;29;20217;-53
2023/10/20 07:45:49;;;;;;;14.00;12.40;;;17.50;76.20;;;;;;4918252;29;20189;-50
2023/10/20 07:48:15;;;;;;;13.20;11.90;;;17.20;76.80;;;;;;4918151;29;20689;-48
2023/10/20 07:50:41;;;;;;;12.80;11.50;;;17.20;78.20;;;;;;4916739;29;20412;-52
2023/10/20 07:53:07;;;;;;;13.33;12.00;;;17.50;77.30;;;;;;4928511;29;20443;-49
2023/10/20 07:55:33;;;;;;;16.43;12.30;;;17.50;75.80;;;;;;4925195;29;20191;-47
2023/10/20 07:57:58;;;;;;;16.23;12.50;;;17.30;76.40;;;;;;4912055;29;20445;-48
2023/10/20 08:00:24;;;;;;;12.80;11.50;;;17.10;76.50;;;;;;4910588;29;20221;-49
2023/10/20 08:02:50;;;;;;;14.83;11.23;;;17.00;78.20;;;;;;4914858;29;20189;-49
2023/10/20 08:05:16;;;;;;;14.70;12.00;;;17.00;77.60;;;;;;4914692;29;20205;-50
2023/10/20 08:07:42;;;;;;;15.97;11.17;;;17.40;77.20;;;;;;4921353;29;20189;-51
2023/10/20 08:10:08;;;;;;;10.33;9.27;;;17.80;74.60;;;;;;4922372;29;20484;-52
2023/10/20 08:12:34;;;;;;;13.03;11.40;;;18.20;73.90;;;;;;4921818;29;20424;-48
2023/10/20 08:14:59;;;;;;;17.80;10.57;;;18.30;72.10;;;;;;4921861;29;20420;-49
2023/10/20 08:17:25;;;;;;;30.83;11.73;;;18.60;71.70;;;;;;4924120;29;20201;-49
2023/10/20 08:19:51;;;;;;;14.87;10.70;;;18.90;70.70;;;;;;4912114;29;20225;-48
2023/10/20 08:22:16;;;;;;;12.83;9.50;;;19.00;69.70;;;;;;4921884;29;20196;-48
2023/10/20 08:24:42;;;;;;;35.47;14.63;;;19.10;69.30;;;;;;4928301;29;20184;-48
2023/10/20 08:27:07;;;;;;;12.80;11.40;;;19.20;69.00;;;;;;4927676;29;20664;-50
2023/10/20 08:29:33;;;;;;;12.43;9.63;;;18.90;68.60;;;;;;4925165;29;20283;-48
2023/10/20 08:31:59;;;;;;;11.17;10.17;;;18.80;70.80;;;;;;4911910;29;20194;-48
2023/10/20 08:34:24;;;;;;;12.97;9.30;;;18.80;70.80;;;;;;4911739;29;20445;-48
2023/10/20 08:36:50;;;;;;;11.67;10.37;;;18.80;71.40;;;;;;4908932;29;20190;-47
2023/10/20 08:39:24;;;;;;;12.53;11.33;;;18.90;70.70;;;;;;4913856;29;20228;-50
2023/10/20 08:41:50;;;;;;;11.73;10.53;;;18.80;70.40;;;;;;4908905;29;20197;-49
2023/10/20 08:44:16;;;;;;;11.70;10.60;;;18.60;71.50;;;;;;4909435;29;20459;-51
2023/10/20 08:46:42;;;;;;;13.53;9.37;;;18.70;71.50;;;;;;4912900;29;20679;-48
2023/10/20 08:49:09;;;;;;;11.03;9.73;;;19.00;70.60;;;;;;4923142;29;20479;-51
2023/10/20 08:51:38;;;;;;;12.87;10.13;;;19.20;70.40;;;;;;4913749;29;20440;-47
2023/10/20 08:54:07;;;;;;;13.53;11.30;;;19.40;70.10;;;;;;4913553;29;20437;-48
2023/10/20 08:56:32;;;;;;;12.27;10.97;;;19.40;69.60;;;;;;4907904;29;20461;-47
2023/10/20 08:58:58;;;;;;;11.43;10.30;;;19.40;69.30;;;;;;4909940;29;20488;-50
2023/10/20 09:01:23;;;;;;;14.00;11.83;;;19.50;68.90;;;;;;4910484;29;20274;-54
2023/10/20 09:03:50;;;;;;;15.53;12.60;;;19.60;68.80;;;;;;4907716;29;20200;-53
2023/10/20 09:06:16;;;;;;;12.90;11.60;;;19.70;69.40;;;;;;4914455;29;20626;-48
2023/10/20 09:08:43;;;;;;;11.60;10.03;;;19.80;69.50;;;;;;4914851;29;20469;-49
2023/10/20 09:11:10;;;;;;;10.47;9.47;;;19.80;68.70;;;;;;4911756;29;20210;-50
2023/10/20 09:13:39;;;;;;;11.43;10.33;;;19.90;67.60;;;;;;4911922;29;20446;-54
2023/10/20 09:16:10;;;;;;;10.30;9.40;;;20.00;67.00;;;;;;4908517;29;20660;-48
2023/10/20 09:18:54;;;;;;;9.60;8.70;;;20.20;67.10;;;;;;4911049;29;20484;-54
2023/10/20 09:21:25;;;;;;;10.80;9.80;;;20.30;67.80;;;;;;4914785;29;20539;-49
2023/10/20 09:24:04;;;;;;;11.00;10.00;;;20.50;67.30;;;;;;4911182;29;21050;-48
2023/10/20 09:26:32;;;;;;;25.00;13.77;;;20.40;64.50;;;;;;4909992;29;20793;-49
2023/10/20 09:28:58;;;;;;;35.90;15.60;;;20.30;65.20;;;;;;4912172;29;20452;-47
2023/10/20 09:31:24;;;;;;;43.83;15.23;;;20.20;64.70;;;;;;4906925;29;20449;-50
2023/10/20 09:33:50;;;;;;;21.23;14.53;;;20.20;65.10;;;;;;4904697;29;20196;-48
2023/10/20 09:36:18;;;;;;;15.40;11.80;;;20.30;65.30;;;;;;4902571;29;20508;-49
2023/10/20 09:38:54;;;;;;;16.37;11.57;;;20.10;64.80;;;;;;4913109;29;20486;-48
2023/10/20 09:41:25;;;;;;;16.63;11.87;;;20.10;65.10;;;;;;4900405;29;20449;-50
2023/10/20 09:43:53;;;;;;;12.03;10.93;;;20.20;66.00;;;;;;4907798;29;21273;-49
2023/10/20 09:46:53;;;;;;;12.17;11.07;;;20.40;66.40;;;;;;4902479;29;20438;-49
2023/10/20 09:49:20;;;;;;;13.03;11.80;;;20.40;65.90;;;;;;4903275;29;20522;-48
2023/10/20 09:51:47;;;;;;;12.87;11.67;;;20.30;65.30;;;;;;4900465;29;20434;-48
2023/10/20 09:54:16;;;;;;;13.33;11.67;;;20.40;66.10;;;;;;4909698;29;20528;-47
2023/10/20 09:56:44;;;;;;;14.43;13.07;;;20.40;65.50;;;;;;4905129;29;20446;-50
2023/10/20 09:59:16;;;;;;;12.83;11.60;;;20.10;64.70;;;;;;4916834;29;20491;-50
2023/10/20 10:01:45;;;;;;;13.10;12.00;;;20.20;66.20;;;;;;4913964;29;20486;-47
2023/10/20 10:04:11;;;;;;;14.57;13.17;;;20.20;65.90;;;;;;4914217;29;20436;-48
2023/10/20 10:06:38;;;;;;;17.73;13.30;;;20.20;66.50;;;;;;4917845;29;20931;-51
2023/10/20 10:09:08;;;;;;;12.67;11.53;;;20.30;66.20;;;;;;4912852;29;20216;-48
2023/10/20 10:11:39;;;;;;;11.53;10.53;;;20.30;65.70;;;;;;4905977;29;21187;-50
2023/10/20 10:14:05;;;;;;;13.63;11.57;;;20.60;65.30;;;;;;4919329;29;20567;-48
2023/10/20 10:16:32;;;;;;;12.67;11.47;;;20.80;64.60;;;;;;4919513;29;20932;-51
2023/10/20 10:19:10;;;;;;;10.40;7.90;;;20.90;63.80;;;;;;4904964;29;20213;-49
2023/10/20 10:21:42;;;;;;;6.93;6.30;;;20.70;64.10;;;;;;4902541;29;20437;-48
2023/10/20 10:24:14;;;;;;;7.53;6.83;;;20.50;65.40;;;;;;4905330;29;20473;-48
2023/10/20 10:27:11;;;;;;;6.83;6.20;;;20.50;66.40;;;;;;4911007;29;20528;-47
2023/10/20 10:29:47;;;;;;;6.40;5.90;;;20.50;65.80;;;;;;4901157;29;20556;-47
2023/10/20 10:32:13;;;;;;;6.23;5.70;;;20.90;65.60;;;;;;4894839;29;20480;-49
2023/10/20 10:34:47;;;;;;;6.90;6.30;;;21.10;65.10;;;;;;4906191;29;20430;-48
2023/10/20 10:37:16;;;;;;;9.97;5.83;;;21.10;64.50;;;;;;4903360;29;20441;-47
2023/10/20 10:39:41;;;;;;;6.80;6.10;;;21.10;64.60;;;;;;4906927;29;20524;-47
2023/10/20 10:42:07;;;;;;;7.10;6.40;;;21.10;65.00;;;;;;4910658;29;20945;-48
2023/10/20 10:44:34;;;;;;;7.10;6.00;;;21.10;65.30;;;;;;4911893;29;20189;-48
2023/10/20 10:47:00;;;;;;;6.37;5.77;;;21.10;65.70;;;;;;4910790;29;20348;-48
2023/10/20 10:49:26;;;;;;;7.90;5.43;;;20.90;66.70;;;;;;4908446;28;20477;-46
2023/10/20 10:51:52;;;;;;;7.37;5.80;;;21.00;66.20;;;;;;4910875;29;20471;-51
2023/10/20 10:54:18;;;;;;;7.37;5.57;;;21.10;66.20;;;;;;4910753;29;20193;-47
2023/10/20 10:56:45;;;;;;;6.10;5.60;;;21.20;66.30;;;;;;4909451;29;20453;-51
2023/10/20 10:59:11;;;;;;;6.50;5.50;;;21.10;66.30;;;;;;4911773;29;20489;-47
2023/10/20 11:01:40;;;;;;;5.03;4.63;;;21.20;66.00;;;;;;4908865;29;20456;-48
2023/10/20 11:04:10;;;;;;;6.67;5.90;;;21.20;66.10;;;;;;4905607;29;20458;-49
2023/10/20 11:06:39;;;;;;;5.87;5.27;;;21.10;66.50;;;;;;4910708;29;21153;-48
2023/10/20 11:09:11;;;;;;;6.40;5.87;;;21.10;66.70;;;;;;4903189;29;20491;-47
2023/10/20 11:11:42;;;;;;;5.53;5.03;;;21.10;66.90;;;;;;4911684;29;20528;-49
2023/10/20 11:14:17;;;;;;;5.63;4.90;;;21.10;67.10;;;;;;4907602;29;20449;-49
2023/10/20 11:16:43;;;;;;;6.20;5.03;;;21.10;67.30;;;;;;4898547;29;20465;-48
2023/10/20 11:19:11;;;;;;;5.67;5.13;;;21.00;67.70;;;;;;4910879;29;20488;-49
2023/10/20 11:21:48;;;;;;;7.73;4.67;;;21.10;67.80;;;;;;4912213;29;20189;-48
2023/10/20 11:24:37;;;;;;;5.10;4.70;;;21.10;68.20;;;;;;4914594;29;20480;-49
2023/10/20 11:27:07;;;;;;;3.93;3.63;;;21.00;67.90;;;;;;4900349;29;20941;-53
2023/10/20 11:29:35;;;;;;;3.60;3.10;;;20.90;69.10;;;;;;4893496;29;20469;-48
2023/10/20 11:32:06;;;;;;;3.80;3.60;;;20.80;69.50;;;;;;4903908;29;20596;-53
2023/10/20 11:34:33;;;;;;;2.60;2.40;;;20.80;69.50;;;;;;4902509;29;20460;-47
2023/10/20 11:36:59;;;;;;;3.10;2.90;;;20.70;69.30;;;;;;4893470;29;20525;-50
2023/10/20 11:39:27;;;;;;;2.93;2.73;;;20.50;70.10;;;;;;4900442;29;20535;-47
2023/10/20 11:41:53;;;;;;;3.97;3.67;;;20.50;70.00;;;;;;4904127;29;20437;-50
2023/10/20 11:44:19;;;;;;;3.60;3.30;;;20.80;69.80;;;;;;4906897;29;20453;-51
2023/10/20 11:46:45;;;;;;;2.67;2.43;;;21.00;69.00;;;;;;4904010;29;20468;-51
2023/10/20 11:49:10;;;;;;;3.10;2.90;;;20.90;67.60;;;;;;4901917;29;20468;-48
2023/10/20 11:51:38;;;;;;;2.70;2.50;;;21.00;67.80;;;;;;4909891;29;20484;-47
2023/10/20 11:54:04;;;;;;;2.43;2.20;;;21.00;68.30;;;;;;4906841;29;20609;-50
2023/10/20 11:56:30;;;;;;;1.73;1.63;;;21.10;67.90;;;;;;4908326;29;20469;-49
2023/10/20 11:58:56;;;;;;;2.43;1.97;;;21.10;67.10;;;;;;4900382;29;20485;-51
2023/10/20 12:01:22;;;;;;;2.27;2.07;;;21.20;66.60;;;;;;4901838;29;20438;-46
2023/10/20 12:03:47;;;;;;;1.60;1.50;;;21.20;66.70;;;;;;4908765;29;20190;-47
2023/10/20 12:06:13;;;;;;;1.33;1.23;;;21.00;65.50;;;;;;4912229;29;20481;-49
2023/10/20 12:08:39;;;;;;;1.23;1.13;;;20.70;65.30;;;;;;4914502;29;20197;-47
2023/10/20 12:11:05;;;;;;;3.03;1.00;;;20.70;65.50;;;;;;4910538;29;20629;-49
2023/10/20 12:13:31;;;;;;;1.43;1.10;;;20.80;66.00;;;;;;4910907;29;20501;-49
2023/10/20 12:15:56;;;;;;;0.70;0.70;;;20.40;64.90;;;;;;4908546;29;20201;-48
2023/10/20 12:18:22;;;;;;;1.10;0.70;;;20.40;65.80;;;;;;4912166;29;20197;-46
2023/10/20 12:20:47;;;;;;;1.27;0.90;;;20.30;64.90;;;;;;4906377;29;20208;-49
2023/10/20 12:23:15;;;;;;;1.27;1.17;;;20.30;65.80;;;;;;4902717;28;20197;-47
2023/10/20 12:25:40;;;;;;;0.70;0.70;;;20.30;65.40;;;;;;4900650;29;20182;-49
2023/10/20 12:28:06;;;;;;;1.73;0.77;;;20.20;65.50;;;;;;4906229;29;20485;-49
2023/10/20 12:30:32;;;;;;;0.70;0.60;;;20.30;65.60;;;;;;4911007;29;20200;-51
2023/10/20 12:32:58;;;;;;;1.10;0.90;;;20.40;64.60;;;;;;4909747;29;20228;-48
2023/10/20 12:35:23;;;;;;;0.87;0.87;;;20.20;65.40;;;;;;4910834;29;20500;-51
2023/10/20 12:37:49;;;;;;;1.80;1.40;;;20.30;65.60;;;;;;4907529;29;20195;-51
2023/10/20 12:40:15;;;;;;;1.23;1.13;;;20.50;65.00;;;;;;4925428;29;20604;-51
2023/10/20 12:42:41;;;;;;;0.80;0.80;;;20.60;64.80;;;;;;4916446;29;20189;-48
2023/10/20 12:45:10;;;;;;;1.67;0.90;;;20.70;64.50;;;;;;4913735;29;20434;-49
2023/10/20 12:47:36;;;;;;;0.70;0.70;;;20.90;64.30;;;;;;4910941;29;20248;-49
2023/10/20 12:50:03;;;;;;;0.77;0.77;;;21.10;63.50;;;;;;4911589;29;20439;-49
2023/10/20 12:52:29;;;;;;;0.93;0.60;;;21.20;63.10;;;;;;4906536;29;20185;-48
2023/10/20 12:54:54;;;;;;;0.90;0.90;;;21.20;62.70;;;;;;4914946;29;21037;-50
2023/10/20 12:57:20;;;;;;;0.73;0.73;;;21.40;62.00;;;;;;4913221;29;20250;-49
2023/10/20 12:59:45;;;;;;;1.27;0.80;;;21.60;62.00;;;;;;4911295;29;20307;-50
2023/10/20 13:02:11;;;;;;;0.83;0.70;;;21.40;61.80;;;;;;4912332;29;20252;-53
2023/10/20 13:04:36;;;;;;;0.70;0.70;;;21.30;61.70;;;;;;4909840;29;20193;-52
2023/10/20 13:07:02;;;;;;;0.70;0.60;;;21.30;60.90;;;;;;4913105;29;20193;-55